createdAt,value
2017-03-16T00:00:06.293Z,0
2017-03-16T00:01:16.545Z,0
2017-03-16T00:02:26.481Z,0
2017-03-16T00:03:36.990Z,0
2017-03-16T00:04:47.244Z,0
2017-03-16T00:05:57.495Z,0
2017-03-16T00:07:07.431Z,0
2017-03-16T00:08:17.362Z,0
2017-03-16T00:09:27.658Z,0
2017-03-16T00:10:37.917Z,0
2017-03-16T00:11:47.542Z,0
2017-03-16T00:12:57.474Z,0
2017-03-16T00:14:07.409Z,0
2017-03-16T00:15:17.661Z,0
2017-03-16T00:16:27.948Z,0
2017-03-16T00:17:38.199Z,0
2017-03-16T00:18:48.145Z,0
2017-03-16T00:19:58.394Z,0
2017-03-16T00:21:08.647Z,0
2017-03-16T00:22:18.893Z,0
2017-03-16T00:23:29.147Z,0
2017-03-16T00:24:39.396Z,0
2017-03-16T00:25:49.645Z,0
2017-03-16T00:26:59.894Z,0
2017-03-16T00:28:09.829Z,0
2017-03-16T00:29:19.765Z,0
2017-03-16T00:30:29.714Z,0
2017-03-16T00:31:39.648Z,0
2017-03-16T00:32:49.891Z,0
2017-03-16T00:34:00.137Z,0
2017-03-16T00:35:10.074Z,0
2017-03-16T00:36:20.325Z,0
2017-03-16T00:37:30.259Z,0
2017-03-16T00:38:40.195Z,0
2017-03-16T00:39:50.438Z,0
2017-03-16T00:41:00.684Z,0
2017-03-16T00:42:10.625Z,0
2017-03-16T00:43:20.876Z,0
2017-03-16T00:44:30.815Z,0
2017-03-16T00:45:41.093Z,0
2017-03-16T00:46:51.339Z,0
2017-03-16T00:48:01.587Z,0
2017-03-16T00:49:11.517Z,0
2017-03-16T00:50:21.136Z,0
2017-03-16T00:51:31.384Z,0
2017-03-16T00:52:41.317Z,0
2017-03-16T00:53:51.560Z,0
2017-03-16T00:55:01.814Z,0
2017-03-16T00:56:11.746Z,0
2017-03-16T00:57:21.995Z,0
2017-03-16T00:58:32.248Z,0
2017-03-16T00:59:42.500Z,0
2017-03-16T01:00:52.757Z,0
2017-03-16T01:02:03.003Z,0
2017-03-16T01:03:12.938Z,0
2017-03-16T01:04:23.187Z,0
2017-03-16T01:05:33.440Z,0
2017-03-16T01:06:43.688Z,0
2017-03-16T01:07:53.938Z,0
2017-03-16T01:09:03.893Z,0
2017-03-16T01:10:14.151Z,0
2017-03-16T01:11:24.403Z,0
2017-03-16T01:12:34.345Z,0
2017-03-16T01:13:44.603Z,0
2017-03-16T01:14:54.854Z,0
2017-03-16T01:16:05.110Z,0
2017-03-16T01:17:15.052Z,0
2017-03-16T01:18:25.304Z,0
2017-03-16T01:19:35.560Z,0
2017-03-16T01:20:45.181Z,0
2017-03-16T01:21:55.438Z,0
2017-03-16T01:23:05.693Z,0
2017-03-16T01:24:15.953Z,0
2017-03-16T01:25:26.200Z,0
2017-03-16T01:26:36.447Z,0
2017-03-16T01:27:46.694Z,0
2017-03-16T01:28:56.956Z,0
2017-03-16T01:30:06.892Z,0
2017-03-16T01:31:16.832Z,0
2017-03-16T01:32:27.079Z,0
2017-03-16T01:33:37.329Z,0
2017-03-16T01:34:47.582Z,0
2017-03-16T01:35:57.834Z,0
2017-03-16T01:37:08.086Z,0
2017-03-16T01:38:18.021Z,0
2017-03-16T01:39:28.277Z,0
2017-03-16T01:40:38.527Z,0
2017-03-16T01:41:48.777Z,0
2017-03-16T01:42:59.038Z,0
2017-03-16T01:44:09.294Z,0
2017-03-16T01:45:19.233Z,0
2017-03-16T01:46:29.486Z,0
2017-03-16T01:47:39.747Z,0
2017-03-16T01:48:49.994Z,0
2017-03-16T01:49:59.934Z,0
2017-03-16T01:51:09.879Z,0
2017-03-16T01:52:19.824Z,0
2017-03-16T01:53:30.082Z,0
2017-03-16T01:54:40.332Z,0
2017-03-16T01:55:50.585Z,0
2017-03-16T01:57:00.832Z,0
2017-03-16T01:58:10.768Z,0
2017-03-16T01:59:21.020Z,0
2017-03-16T02:00:31.269Z,0
2017-03-16T02:01:41.206Z,0
2017-03-16T02:02:51.475Z,0
2017-03-16T02:04:01.728Z,0
2017-03-16T02:05:11.978Z,0
2017-03-16T02:06:21.916Z,0
2017-03-16T02:07:32.175Z,0
2017-03-16T02:08:42.422Z,0
2017-03-16T02:09:52.360Z,0
2017-03-16T02:11:02.609Z,0
2017-03-16T02:12:12.858Z,0
2017-03-16T02:13:23.113Z,0
2017-03-16T02:14:33.430Z,0
2017-03-16T02:15:43.367Z,0
2017-03-16T02:16:53.619Z,0
2017-03-16T02:18:03.554Z,0
2017-03-16T02:19:13.802Z,0
2017-03-16T02:20:24.059Z,0
2017-03-16T02:21:34.313Z,0
2017-03-16T02:22:44.562Z,0
2017-03-16T02:23:54.808Z,0
2017-03-16T02:25:05.056Z,0
2017-03-16T02:26:14.995Z,0
2017-03-16T02:27:25.244Z,0
2017-03-16T02:28:35.497Z,0
2017-03-16T02:29:45.430Z,0
2017-03-16T02:30:55.677Z,0
2017-03-16T02:32:05.936Z,0
2017-03-16T02:33:16.188Z,0
2017-03-16T02:34:26.464Z,0
2017-03-16T02:35:36.401Z,0
2017-03-16T02:36:46.336Z,0
2017-03-16T02:37:56.592Z,0
2017-03-16T02:39:06.841Z,0
2017-03-16T02:40:17.091Z,0
2017-03-16T02:41:27.345Z,0
2017-03-16T02:42:37.281Z,0
2017-03-16T02:43:47.527Z,0
2017-03-16T02:44:57.781Z,0
2017-03-16T02:46:07.722Z,0
2017-03-16T02:47:17.970Z,0
2017-03-16T02:48:28.223Z,0
2017-03-16T02:49:38.473Z,0
2017-03-16T02:50:48.728Z,0
2017-03-16T02:51:59.005Z,0
2017-03-16T02:53:09.270Z,0
2017-03-16T02:54:19.515Z,0
2017-03-16T02:55:29.768Z,0
2017-03-16T02:56:40.018Z,0
2017-03-16T02:57:50.276Z,0
2017-03-16T02:59:00.523Z,0
2017-03-16T03:00:10.462Z,0
2017-03-16T03:01:20.716Z,0
2017-03-16T03:02:30.969Z,0
2017-03-16T03:03:41.221Z,0
2017-03-16T03:04:50.539Z,0
2017-03-16T03:06:00.787Z,0
2017-03-16T03:07:11.038Z,0
2017-03-16T03:08:20.977Z,0
2017-03-16T03:09:31.234Z,0
2017-03-16T03:10:41.479Z,0
2017-03-16T03:11:51.727Z,0
2017-03-16T03:13:01.979Z,0
2017-03-16T03:14:11.919Z,0
2017-03-16T03:15:22.170Z,0
2017-03-16T03:16:32.105Z,0
2017-03-16T03:17:42.044Z,0
2017-03-16T03:18:52.296Z,0
2017-03-16T03:20:02.552Z,0
2017-03-16T03:21:12.493Z,0
2017-03-16T03:22:22.452Z,0
2017-03-16T03:23:32.706Z,0
2017-03-16T03:24:42.954Z,0
2017-03-16T03:25:53.210Z,0
2017-03-16T03:27:03.464Z,0
2017-03-16T03:28:13.709Z,0
2017-03-16T03:29:23.961Z,0
2017-03-16T03:30:34.205Z,0
2017-03-16T03:31:44.448Z,0
2017-03-16T03:32:54.692Z,0
2017-03-16T03:34:04.651Z,0
2017-03-16T03:35:14.904Z,0
2017-03-16T03:36:25.154Z,0
2017-03-16T03:37:35.406Z,0
2017-03-16T03:38:45.658Z,0
2017-03-16T03:39:55.605Z,0
2017-03-16T03:41:05.858Z,0
2017-03-16T03:42:15.799Z,0
2017-03-16T03:43:25.435Z,0
2017-03-16T03:44:34.747Z,0
2017-03-16T03:45:44.681Z,0
2017-03-16T03:46:54.931Z,0
2017-03-16T03:48:05.177Z,0
2017-03-16T03:49:15.440Z,0
2017-03-16T03:50:25.692Z,0
2017-03-16T03:51:35.313Z,0
2017-03-16T03:52:45.250Z,0
2017-03-16T03:53:55.496Z,0
2017-03-16T03:55:05.439Z,0
2017-03-16T03:56:15.691Z,0
2017-03-16T03:57:25.628Z,0
2017-03-16T03:58:35.876Z,0
2017-03-16T03:59:46.121Z,0
2017-03-16T04:00:56.061Z,0
2017-03-16T04:02:06.309Z,0
2017-03-16T04:03:16.557Z,0
2017-03-16T04:04:26.812Z,0
2017-03-16T04:05:37.067Z,0
2017-03-16T04:06:47.317Z,0
2017-03-16T04:07:57.576Z,0
2017-03-16T04:09:07.824Z,0
2017-03-16T04:10:18.078Z,0
2017-03-16T04:11:28.336Z,0
2017-03-16T04:12:38.274Z,0
2017-03-16T04:13:48.529Z,0
2017-03-16T04:14:58.781Z,0
2017-03-16T04:16:08.721Z,0
2017-03-16T04:17:18.968Z,0
2017-03-16T04:18:29.218Z,0
2017-03-16T04:19:39.180Z,0
2017-03-16T04:20:49.431Z,0
2017-03-16T04:21:59.384Z,0
2017-03-16T04:23:09.636Z,0
2017-03-16T04:24:19.896Z,0
2017-03-16T04:25:30.142Z,0
2017-03-16T04:26:40.392Z,0
2017-03-16T04:27:50.370Z,0
2017-03-16T04:29:00.624Z,0
2017-03-16T04:30:10.558Z,0
2017-03-16T04:31:20.492Z,0
2017-03-16T04:32:30.439Z,0
2017-03-16T04:33:40.374Z,0
2017-03-16T04:34:50.632Z,0
2017-03-16T04:36:00.575Z,0
2017-03-16T04:37:10.824Z,0
2017-03-16T04:38:20.763Z,0
2017-03-16T04:39:31.014Z,0
2017-03-16T04:40:41.265Z,0
2017-03-16T04:41:51.527Z,0
2017-03-16T04:43:01.463Z,0
2017-03-16T04:44:11.714Z,0
2017-03-16T04:45:21.979Z,0
2017-03-16T04:46:32.234Z,0
2017-03-16T04:47:42.484Z,0
2017-03-16T04:48:52.732Z,0
2017-03-16T04:50:02.674Z,0
2017-03-16T04:51:12.924Z,4
2017-03-16T04:52:23.172Z,4
2017-03-16T04:53:33.424Z,0
2017-03-16T04:54:43.357Z,0
2017-03-16T04:55:53.610Z,0
2017-03-16T04:57:03.548Z,4
2017-03-16T04:58:13.482Z,0
2017-03-16T04:59:23.726Z,4
2017-03-16T05:00:33.983Z,4
2017-03-16T05:01:43.918Z,4
2017-03-16T05:02:54.171Z,4
2017-03-16T05:04:04.108Z,8
2017-03-16T05:05:14.044Z,8
2017-03-16T05:06:23.977Z,8
2017-03-16T05:07:33.913Z,12
2017-03-16T05:08:44.180Z,12
2017-03-16T05:09:54.127Z,16
2017-03-16T05:11:04.381Z,16
2017-03-16T05:12:14.323Z,24
2017-03-16T05:13:24.268Z,24
2017-03-16T05:14:34.526Z,28
2017-03-16T05:15:44.466Z,32
2017-03-16T05:16:54.715Z,32
2017-03-16T05:18:04.348Z,40
2017-03-16T05:19:14.609Z,44
2017-03-16T05:20:24.552Z,52
2017-03-16T05:21:34.177Z,60
2017-03-16T05:22:44.431Z,68
2017-03-16T05:23:54.692Z,76
2017-03-16T05:25:04.639Z,92
2017-03-16T05:26:14.578Z,104
2017-03-16T05:27:24.213Z,116
2017-03-16T05:28:34.478Z,128
2017-03-16T05:29:44.735Z,136
2017-03-16T05:30:54.998Z,152
2017-03-16T05:32:05.250Z,168
2017-03-16T05:33:15.505Z,196
2017-03-16T05:34:25.445Z,228
2017-03-16T05:35:35.386Z,260
2017-03-16T05:36:45.646Z,284
2017-03-16T05:37:55.903Z,308
2017-03-16T05:39:06.157Z,328
2017-03-16T05:40:16.411Z,348
2017-03-16T05:41:26.686Z,368
2017-03-16T05:42:36.941Z,384
2017-03-16T05:43:47.201Z,408
2017-03-16T05:44:57.449Z,428
2017-03-16T05:46:07.388Z,444
2017-03-16T05:47:17.644Z,468
2017-03-16T05:48:27.906Z,488
2017-03-16T05:49:37.846Z,504
2017-03-16T05:50:47.793Z,520
2017-03-16T05:51:57.730Z,536
2017-03-16T05:53:07.990Z,556
2017-03-16T05:54:18.250Z,568
2017-03-16T05:55:28.499Z,576
2017-03-16T05:56:38.433Z,576
2017-03-16T05:57:48.381Z,576
2017-03-16T05:58:58.642Z,580
2017-03-16T06:00:08.578Z,588
2017-03-16T06:01:18.837Z,604
2017-03-16T06:02:29.093Z,628
2017-03-16T06:03:39.352Z,648
2017-03-16T06:04:49.286Z,664
2017-03-16T06:05:59.544Z,688
2017-03-16T06:07:09.801Z,716
2017-03-16T06:08:20.050Z,744
2017-03-16T06:09:30.003Z,744
2017-03-16T06:10:39.946Z,748
2017-03-16T06:11:49.882Z,776
2017-03-16T06:13:00.136Z,836
2017-03-16T06:14:10.090Z,896
2017-03-16T06:15:20.338Z,936
2017-03-16T06:16:30.281Z,964
2017-03-16T06:17:40.541Z,1000
2017-03-16T06:18:50.810Z,1028
2017-03-16T06:20:00.755Z,1044
2017-03-16T06:21:11.021Z,1064
2017-03-16T06:22:21.272Z,1068
2017-03-16T06:23:31.539Z,1056
2017-03-16T06:24:41.792Z,1056
2017-03-16T06:25:51.732Z,1060
2017-03-16T06:27:01.992Z,1076
2017-03-16T06:28:12.256Z,1080
2017-03-16T06:29:22.204Z,1088
2017-03-16T06:30:32.469Z,1100
2017-03-16T06:31:42.412Z,1120
2017-03-16T06:32:52.674Z,1140
2017-03-16T06:34:02.621Z,1148
2017-03-16T06:35:12.875Z,1156
2017-03-16T06:36:23.132Z,1160
2017-03-16T06:37:32.755Z,1184
2017-03-16T06:38:42.701Z,1236
2017-03-16T06:39:52.647Z,1272
2017-03-16T06:41:02.905Z,1316
2017-03-16T06:42:12.847Z,1368
2017-03-16T06:43:23.105Z,1416
2017-03-16T06:44:33.052Z,1468
2017-03-16T06:45:42.995Z,1528
2017-03-16T06:46:52.939Z,1564
2017-03-16T06:48:03.201Z,1600
2017-03-16T06:49:13.464Z,1652
2017-03-16T06:50:23.717Z,1728
2017-03-16T06:51:33.973Z,1784
2017-03-16T06:52:44.229Z,1848
2017-03-16T06:53:54.176Z,1904
2017-03-16T06:55:04.122Z,2008
2017-03-16T06:56:14.409Z,2140
2017-03-16T06:57:24.345Z,2304
2017-03-16T06:58:34.608Z,2408
2017-03-16T06:59:44.866Z,2456
2017-03-16T07:00:55.131Z,2468
2017-03-16T07:02:05.384Z,2464
2017-03-16T07:03:15.640Z,2504
2017-03-16T07:04:25.748Z,2616
2017-03-16T07:05:36.016Z,2808
2017-03-16T07:06:46.272Z,2960
2017-03-16T07:07:56.532Z,3048
2017-03-16T07:09:06.479Z,3140
2017-03-16T07:10:17.138Z,3164
2017-03-16T07:11:27.098Z,3184
2017-03-16T07:12:37.356Z,3172
2017-03-16T07:13:47.619Z,3184
2017-03-16T07:14:57.565Z,3216
2017-03-16T07:16:09.830Z,3232
2017-03-16T07:17:19.773Z,3204
2017-03-16T07:18:30.032Z,3208
2017-03-16T07:19:40.293Z,3216
2017-03-16T07:20:50.546Z,3216
2017-03-16T07:22:00.818Z,3176
2017-03-16T07:23:11.078Z,3108
2017-03-16T07:24:21.339Z,3068
2017-03-16T07:25:31.595Z,3024
2017-03-16T07:26:41.852Z,2984
2017-03-16T07:27:52.109Z,3020
2017-03-16T07:29:02.378Z,3100
2017-03-16T07:30:12.636Z,3232
2017-03-16T07:31:22.572Z,3436
2017-03-16T07:32:32.509Z,3624
2017-03-16T07:33:42.456Z,3768
2017-03-16T07:34:52.396Z,3820
2017-03-16T07:36:02.334Z,3844
2017-03-16T07:37:12.288Z,3820
2017-03-16T07:38:22.546Z,3908
2017-03-16T07:39:32.813Z,4040
2017-03-16T07:40:42.438Z,4240
2017-03-16T07:41:52.692Z,4428
2017-03-16T07:43:02.635Z,4504
2017-03-16T07:44:12.898Z,4528
2017-03-16T07:45:23.169Z,4456
2017-03-16T07:46:33.115Z,4280
2017-03-16T07:47:43.374Z,4080
2017-03-16T07:48:53.639Z,3956
2017-03-16T07:50:03.267Z,3888
2017-03-16T07:51:13.214Z,3920
2017-03-16T07:52:23.471Z,4060
2017-03-16T07:53:33.419Z,4256
2017-03-16T07:54:43.366Z,4456
2017-03-16T07:55:53.635Z,4652
2017-03-16T07:57:03.889Z,4816
2017-03-16T07:58:13.833Z,4960
2017-03-16T07:59:24.097Z,5132
2017-03-16T08:00:34.354Z,5176
2017-03-16T08:01:44.292Z,5016
2017-03-16T08:02:54.238Z,4692
2017-03-16T08:04:04.496Z,4584
2017-03-16T08:05:14.474Z,4656
2017-03-16T08:06:24.730Z,4624
2017-03-16T08:07:34.982Z,4568
2017-03-16T08:08:45.249Z,4596
2017-03-16T08:09:55.195Z,4684
2017-03-16T08:11:05.489Z,4964
2017-03-16T08:12:15.821Z,5196
2017-03-16T08:13:26.073Z,5392
2017-03-16T08:14:36.023Z,5560
2017-03-16T08:15:45.974Z,5752
2017-03-16T08:16:56.233Z,5828
2017-03-16T08:18:06.182Z,5968
2017-03-16T08:19:16.438Z,6128
2017-03-16T08:20:26.695Z,6152
2017-03-16T08:21:36.948Z,6096
2017-03-16T08:22:47.203Z,5856
2017-03-16T08:23:57.166Z,5724
2017-03-16T08:25:07.421Z,5512
2017-03-16T08:26:17.669Z,5424
2017-03-16T08:27:27.923Z,5244
2017-03-16T08:28:38.179Z,5184
2017-03-16T08:29:48.432Z,5236
2017-03-16T08:30:58.375Z,5320
2017-03-16T08:32:08.632Z,5312
2017-03-16T08:33:18.921Z,5264
2017-03-16T08:34:29.172Z,5140
2017-03-16T08:35:39.461Z,5116
2017-03-16T08:36:49.719Z,5076
2017-03-16T08:37:59.662Z,5028
2017-03-16T08:39:09.947Z,4992
2017-03-16T08:40:19.575Z,5096
2017-03-16T08:41:29.834Z,5156
2017-03-16T08:42:40.098Z,5076
2017-03-16T08:43:50.363Z,5260
2017-03-16T08:45:00.619Z,5180
2017-03-16T08:46:10.252Z,5100
2017-03-16T08:47:20.503Z,4996
2017-03-16T08:48:30.757Z,4892
2017-03-16T08:49:40.698Z,5024
2017-03-16T08:50:50.955Z,5220
2017-03-16T08:52:00.896Z,5580
2017-03-16T08:53:10.518Z,5728
2017-03-16T08:54:20.777Z,5476
2017-03-16T08:55:31.031Z,5312
2017-03-16T08:56:41.290Z,5212
2017-03-16T08:57:51.223Z,5216
2017-03-16T08:59:01.477Z,5432
2017-03-16T09:00:11.733Z,5580
2017-03-16T09:01:21.992Z,5672
2017-03-16T09:02:32.243Z,5536
2017-03-16T09:03:42.185Z,5656
2017-03-16T09:04:52.126Z,5872
2017-03-16T09:06:02.381Z,6180
2017-03-16T09:07:12.006Z,6432
2017-03-16T09:08:21.320Z,6244
2017-03-16T09:09:31.577Z,6168
2017-03-16T09:10:41.524Z,6028
2017-03-16T09:11:51.782Z,6072
2017-03-16T09:13:02.049Z,5844
2017-03-16T09:14:11.673Z,5776
2017-03-16T09:15:21.301Z,5952
2017-03-16T09:16:31.561Z,6300
2017-03-16T09:17:40.879Z,6540
2017-03-16T09:18:50.833Z,6620
2017-03-16T09:20:01.086Z,7112
2017-03-16T09:21:11.345Z,7340
2017-03-16T09:22:21.286Z,7348
2017-03-16T09:23:31.542Z,7696
2017-03-16T09:24:41.494Z,7588
2017-03-16T09:25:51.746Z,7404
2017-03-16T09:27:02.002Z,7836
2017-03-16T09:28:12.258Z,8508
2017-03-16T09:29:22.202Z,9544
2017-03-16T09:30:32.146Z,9976
2017-03-16T09:31:42.402Z,9300
2017-03-16T09:32:52.657Z,7976
2017-03-16T09:34:02.605Z,7024
2017-03-16T09:35:12.548Z,6928
2017-03-16T09:36:22.802Z,7060
2017-03-16T09:37:33.052Z,7268
2017-03-16T09:38:42.685Z,7416
2017-03-16T09:39:52.320Z,7608
2017-03-16T09:41:02.580Z,7696
2017-03-16T09:42:12.522Z,7496
2017-03-16T09:43:22.461Z,7748
2017-03-16T09:44:32.713Z,7908
2017-03-16T09:45:42.659Z,7828
2017-03-16T09:46:52.914Z,7856
2017-03-16T09:48:02.860Z,7928
2017-03-16T09:49:13.121Z,8032
2017-03-16T09:50:23.378Z,7388
2017-03-16T09:51:33.637Z,6600
2017-03-16T09:52:43.888Z,6348
2017-03-16T09:53:54.143Z,6508
2017-03-16T09:55:04.097Z,6584
2017-03-16T09:56:13.728Z,6604
2017-03-16T09:57:23.979Z,6600
2017-03-16T09:58:34.230Z,6884
2017-03-16T09:59:44.191Z,7112
2017-03-16T10:00:54.453Z,7076
2017-03-16T10:02:04.710Z,7404
2017-03-16T10:03:14.658Z,7552
2017-03-16T10:04:24.911Z,7460
2017-03-16T10:05:34.849Z,7580
2017-03-16T10:06:44.823Z,7892
2017-03-16T10:07:54.444Z,8304
2017-03-16T10:09:04.074Z,8344
2017-03-16T10:10:13.702Z,8268
2017-03-16T10:11:23.953Z,8104
2017-03-16T10:12:34.218Z,8060
2017-03-16T10:13:44.165Z,8312
2017-03-16T10:14:54.104Z,8692
2017-03-16T10:16:04.052Z,8760
2017-03-16T10:17:14.310Z,8912
2017-03-16T10:18:24.249Z,8776
2017-03-16T10:19:34.192Z,8732
2017-03-16T10:20:44.449Z,8428
2017-03-16T10:21:54.391Z,8468
2017-03-16T10:23:04.649Z,8632
2017-03-16T10:24:14.908Z,9224
2017-03-16T10:25:25.156Z,9732
2017-03-16T10:26:35.415Z,10220
2017-03-16T10:27:45.356Z,10800
2017-03-16T10:28:55.610Z,11048
2017-03-16T10:30:05.870Z,10872
2017-03-16T10:31:15.812Z,10900
2017-03-16T10:32:25.755Z,11576
2017-03-16T10:33:36.011Z,11596
2017-03-16T10:34:46.300Z,11660
2017-03-16T10:35:55.932Z,12284
2017-03-16T10:37:05.877Z,12248
2017-03-16T10:38:15.858Z,12152
2017-03-16T10:39:25.483Z,11524
2017-03-16T10:40:35.110Z,10916
2017-03-16T10:41:44.746Z,10844
2017-03-16T10:42:54.684Z,10936
2017-03-16T10:44:04.624Z,11484
2017-03-16T10:45:14.883Z,11940
2017-03-16T10:46:24.825Z,11472
2017-03-16T10:47:34.768Z,12320
2017-03-16T10:48:44.397Z,13960
2017-03-16T10:49:54.653Z,14304
2017-03-16T10:51:04.910Z,13688
2017-03-16T10:52:15.174Z,13156
2017-03-16T10:53:25.118Z,12924
2017-03-16T10:54:35.374Z,14060
2017-03-16T10:55:45.001Z,14492
2017-03-16T10:56:54.954Z,14964
2017-03-16T10:58:05.212Z,14828
2017-03-16T10:59:15.159Z,14348
2017-03-16T11:00:25.430Z,13984
2017-03-16T11:01:35.682Z,14380
2017-03-16T11:02:45.936Z,14168
2017-03-16T11:03:56.199Z,15520
2017-03-16T11:05:05.844Z,14372
2017-03-16T11:06:15.789Z,13696
2017-03-16T11:07:26.049Z,14088
2017-03-16T11:08:36.303Z,13212
2017-03-16T11:09:45.957Z,12696
2017-03-16T11:10:56.219Z,11940
2017-03-16T11:12:05.535Z,12284
2017-03-16T11:13:15.473Z,15876
2017-03-16T11:14:25.728Z,17600
2017-03-16T11:15:35.982Z,29056
2017-03-16T11:16:46.242Z,29792
2017-03-16T11:17:55.870Z,28736
2017-03-16T11:19:05.814Z,30784
2017-03-16T11:20:15.757Z,27296
2017-03-16T11:21:25.729Z,32064
2017-03-16T11:22:35.996Z,35648
2017-03-16T11:23:46.252Z,35648
2017-03-16T11:24:55.574Z,27680
2017-03-16T11:26:05.839Z,32768
2017-03-16T11:27:16.096Z,26112
2017-03-16T11:28:26.040Z,33440
2017-03-16T11:29:35.994Z,37920
2017-03-16T11:30:46.256Z,29472
2017-03-16T11:31:56.199Z,36288
2017-03-16T11:33:05.830Z,28000
2017-03-16T11:34:15.771Z,24832
2017-03-16T11:35:25.720Z,18944
2017-03-16T11:36:35.980Z,18272
2017-03-16T11:37:45.928Z,25408
2017-03-16T11:38:55.560Z,18976
2017-03-16T11:40:05.188Z,20448
2017-03-16T11:41:15.448Z,27776
2017-03-16T11:42:25.706Z,40128
2017-03-16T11:43:35.967Z,39392
2017-03-16T11:44:45.908Z,38176
2017-03-16T11:45:56.166Z,40384
2017-03-16T11:47:06.114Z,40256
2017-03-16T11:48:16.374Z,37504
2017-03-16T11:49:26.323Z,35136
2017-03-16T11:50:35.956Z,32608
2017-03-16T11:51:46.216Z,30880
2017-03-16T11:52:56.161Z,31456
2017-03-16T11:54:06.419Z,28768
2017-03-16T11:55:16.371Z,28736
2017-03-16T11:56:26.313Z,31552
2017-03-16T11:57:36.267Z,30592
2017-03-16T11:58:45.898Z,30720
2017-03-16T11:59:55.217Z,28224
2017-03-16T12:01:05.477Z,31392
2017-03-16T12:02:15.738Z,29344
2017-03-16T12:03:25.678Z,21888
2017-03-16T12:04:35.938Z,18912
2017-03-16T12:05:45.894Z,19680
2017-03-16T12:06:56.158Z,21728
2017-03-16T12:08:06.107Z,23456
2017-03-16T12:09:16.374Z,23936
2017-03-16T12:10:26.631Z,23744
2017-03-16T12:11:36.587Z,22656
2017-03-16T12:12:46.866Z,21600
2017-03-16T12:13:57.123Z,21824
2017-03-16T12:15:07.385Z,23104
2017-03-16T12:16:17.650Z,22272
2017-03-16T12:17:27.279Z,21984
2017-03-16T12:18:37.542Z,23456
2017-03-16T12:19:47.802Z,21376
2017-03-16T12:20:58.060Z,20896
2017-03-16T12:22:08.326Z,22656
2017-03-16T12:23:18.583Z,19680
2017-03-16T12:24:28.862Z,20576
2017-03-16T12:25:38.808Z,19168
2017-03-16T12:26:48.753Z,15944
2017-03-16T12:27:59.020Z,15912
2017-03-16T12:29:09.283Z,19456
2017-03-16T12:30:19.543Z,20384
2017-03-16T12:31:29.809Z,21888
2017-03-16T12:32:39.753Z,20992
2017-03-16T12:33:49.707Z,20320
2017-03-16T12:34:59.656Z,17696
2017-03-16T12:36:09.289Z,17216
2017-03-16T12:37:19.267Z,14468
2017-03-16T12:38:29.525Z,14280
2017-03-16T12:39:39.471Z,14708
2017-03-16T12:40:49.418Z,14532
2017-03-16T12:41:59.680Z,14176
2017-03-16T12:43:09.939Z,13680
2017-03-16T12:44:19.568Z,13204
2017-03-16T12:45:29.204Z,12984
2017-03-16T12:46:39.158Z,12880
2017-03-16T12:47:49.417Z,12656
2017-03-16T12:48:59.677Z,12452
2017-03-16T12:50:09.939Z,12364
2017-03-16T12:51:20.199Z,13048
2017-03-16T12:52:30.462Z,14472
2017-03-16T12:53:40.410Z,16864
2017-03-16T12:54:50.674Z,16352
2017-03-16T12:56:00.622Z,17664
2017-03-16T12:57:10.884Z,14240
2017-03-16T12:58:20.826Z,15516
2017-03-16T12:59:31.087Z,17952
2017-03-16T13:00:41.355Z,12552
2017-03-16T13:01:51.615Z,12080
2017-03-16T13:03:01.871Z,11640
2017-03-16T13:04:12.135Z,11240
2017-03-16T13:05:22.084Z,11384
2017-03-16T13:06:31.716Z,11476
2017-03-16T13:07:41.654Z,12024
2017-03-16T13:08:51.919Z,16864
2017-03-16T13:10:02.179Z,15032
2017-03-16T13:11:12.126Z,19552
2017-03-16T13:12:22.071Z,19808
2017-03-16T13:13:32.329Z,17856
2017-03-16T13:14:42.275Z,20416
2017-03-16T13:15:52.537Z,19456
2017-03-16T13:17:02.483Z,19328
2017-03-16T13:18:12.427Z,19136
2017-03-16T13:19:22.055Z,19328
2017-03-16T13:20:32.314Z,18944
2017-03-16T13:21:42.580Z,17216
2017-03-16T13:22:52.534Z,16992
2017-03-16T13:24:02.482Z,15452
2017-03-16T13:25:12.424Z,15732
2017-03-16T13:26:22.373Z,16576
2017-03-16T13:27:32.317Z,17824
2017-03-16T13:28:42.576Z,17344
2017-03-16T13:29:52.834Z,17376
2017-03-16T13:31:03.093Z,19296
2017-03-16T13:32:13.043Z,17696
2017-03-16T13:33:22.987Z,19360
2017-03-16T13:34:33.248Z,18880
2017-03-16T13:35:43.512Z,17184
2017-03-16T13:36:53.776Z,14548
2017-03-16T13:38:04.038Z,13228
2017-03-16T13:39:14.299Z,12800
2017-03-16T13:40:24.564Z,13052
2017-03-16T13:41:34.982Z,12916
2017-03-16T13:42:44.974Z,12704
2017-03-16T13:43:55.233Z,12172
2017-03-16T13:45:05.495Z,11832
2017-03-16T13:46:15.757Z,12640
2017-03-16T13:47:25.078Z,13780
2017-03-16T13:48:35.334Z,15228
2017-03-16T13:49:45.631Z,15536
2017-03-16T13:50:55.576Z,15052
2017-03-16T13:52:04.897Z,14172
2017-03-16T13:53:17.163Z,13156
2017-03-16T13:54:27.113Z,13008
2017-03-16T13:55:37.379Z,12744
2017-03-16T13:56:47.674Z,12852
2017-03-16T13:57:57.934Z,13084
2017-03-16T13:59:07.881Z,13484
2017-03-16T14:00:18.145Z,13872
2017-03-16T14:01:28.400Z,13712
2017-03-16T14:02:38.663Z,15044
2017-03-16T14:03:48.611Z,20544
2017-03-16T14:04:58.883Z,17600
2017-03-16T14:06:08.515Z,18304
2017-03-16T14:07:18.780Z,18880
2017-03-16T14:08:29.046Z,17600
2017-03-16T14:09:39.309Z,16160
2017-03-16T14:10:49.578Z,16320
2017-03-16T14:11:59.844Z,16960
2017-03-16T14:13:10.103Z,15192
2017-03-16T14:14:20.058Z,14792
2017-03-16T14:15:30.327Z,21856
2017-03-16T14:16:40.276Z,22016
2017-03-16T14:17:50.538Z,23136
2017-03-16T14:19:00.802Z,25120
2017-03-16T14:20:11.067Z,23296
2017-03-16T14:21:21.052Z,22912
2017-03-16T14:22:31.313Z,21248
2017-03-16T14:23:41.273Z,20800
2017-03-16T14:24:51.526Z,19872
2017-03-16T14:26:01.163Z,19872
2017-03-16T14:27:11.144Z,14848
2017-03-16T14:28:21.088Z,13076
2017-03-16T14:29:31.350Z,12860
2017-03-16T14:30:41.610Z,18240
2017-03-16T14:31:51.878Z,19456
2017-03-16T14:33:02.134Z,22304
2017-03-16T14:34:12.403Z,22720
2017-03-16T14:35:22.664Z,21888
2017-03-16T14:36:32.927Z,27136
2017-03-16T14:37:43.189Z,34176
2017-03-16T14:38:53.134Z,30016
2017-03-16T14:40:03.391Z,28160
2017-03-16T14:41:13.340Z,30016
2017-03-16T14:42:23.601Z,27200
2017-03-16T14:43:33.866Z,26720
2017-03-16T14:44:44.138Z,25696
2017-03-16T14:45:54.401Z,24224
2017-03-16T14:47:04.667Z,12092
2017-03-16T14:48:14.307Z,12564
2017-03-16T14:49:24.570Z,12088
2017-03-16T14:50:34.521Z,12864
2017-03-16T14:51:44.790Z,13352
2017-03-16T14:52:55.054Z,12564
2017-03-16T14:54:05.313Z,22816
2017-03-16T14:55:15.578Z,29600
2017-03-16T14:56:25.845Z,31072
2017-03-16T14:57:36.109Z,26016
2017-03-16T14:58:46.403Z,32096
2017-03-16T14:59:56.671Z,34656
2017-03-16T15:01:06.618Z,21248
2017-03-16T15:02:16.886Z,19008
2017-03-16T15:03:27.149Z,13100
2017-03-16T15:04:37.410Z,21952
2017-03-16T15:05:47.673Z,22496
2017-03-16T15:06:57.941Z,34848
2017-03-16T15:08:08.205Z,36832
2017-03-16T15:09:18.465Z,35616
2017-03-16T15:10:28.730Z,33024
2017-03-16T15:11:38.365Z,37376
2017-03-16T15:12:48.632Z,35936
2017-03-16T15:13:58.904Z,35680
2017-03-16T15:15:08.859Z,30432
2017-03-16T15:16:18.500Z,31936
2017-03-16T15:17:28.764Z,32320
2017-03-16T15:18:38.722Z,31456
2017-03-16T15:19:48.994Z,32224
2017-03-16T15:20:59.398Z,31744
2017-03-16T15:22:09.360Z,33280
2017-03-16T15:23:19.702Z,32768
2017-03-16T15:24:29.973Z,27008
2017-03-16T15:25:40.241Z,27584
2017-03-16T15:26:50.192Z,26336
2017-03-16T15:28:00.474Z,22368
2017-03-16T15:29:10.738Z,11280
2017-03-16T15:30:21.000Z,10624
2017-03-16T15:31:30.947Z,15488
2017-03-16T15:32:41.212Z,26496
2017-03-16T15:33:51.474Z,24288
2017-03-16T15:35:01.740Z,26304
2017-03-16T15:36:12.011Z,30688
2017-03-16T15:37:22.278Z,27296
2017-03-16T15:38:32.542Z,26720
2017-03-16T15:39:42.804Z,23104
2017-03-16T15:40:53.066Z,24736
2017-03-16T15:42:03.017Z,13880
2017-03-16T15:43:12.654Z,11232
2017-03-16T15:44:22.914Z,7312
2017-03-16T15:45:33.172Z,7284
2017-03-16T15:46:43.122Z,6680
2017-03-16T15:47:53.077Z,6604
2017-03-16T15:49:03.023Z,6152
2017-03-16T15:50:12.972Z,6084
2017-03-16T15:51:22.918Z,5752
2017-03-16T15:52:33.178Z,5616
2017-03-16T15:53:43.127Z,5612
2017-03-16T15:54:53.390Z,5440
2017-03-16T15:56:03.334Z,5384